ENAN/ANX METAR and TAF weather

Enter ICAO airport designator
Station Type Date Time Source
ENAN METAR 2018/07/21 12:50 UTC NOAA

ENAN 211250Z 05006KT CAVOK 14/13 Q1007


Station Type Date Time Source
ENAN Decoded METAR 2018/07/21 12:50 UTC NOAA

Andoya, Norway (ENAN) 69-18N 016-09E 14M
Jul 21, 2018 - 08:50 AM EDT / 2018.07.21 1250 UTC
Wind: from the NE (050 degrees) at 7 MPH (6 KT):0
Visibility: greater than 7 mile(s):0
Temperature: 57 F (14 C)
Dew Point: 55 F (13 C)
Relative Humidity: 93%
Pressure (altimeter): 29.74 in. Hg (1007 hPa)
ob: ENAN 211250Z 05006KT CAVOK 14/13 Q1007
cycle: 13

Station Type Date Time Source
ENAN TAF 2018/07/21 12:57 UTC NOAA

TAF TAF ENAN 211100Z 2112/2212 05008KT 9999 FEW020
TEMPO 2121/2209 BKN012 PROB30 2123/2204 0500 FG VV002
TEMPO 2123/2206 27010KT


Example: see airport list